Holly Grove, Mississippi
Current Conditions -  °F | °C
As of 5:53 AM on Monday 22 Dec 2014 (Local Time) from KGWO Reporting Station
Overcast Overcast  
Wind Chill: 52°   Ceiling: 700
Heat Index: 52°   Visibility: 8mi
Dew Point: 49°   Wind: 9mph
Humidity: 89%   Direction: 150°SSE
Pressure: 29.85"   Gusts: NA
Location:  33.3926°N, 90.1584°W
Report Text: KGWO 221153Z AUTO 15008KT 8SM OVC007 11/09 A2985 RMK AO2 SLP109 T01110094 10111 20100 56015
Loading
Personal Weather Stations






























Interactive Weather Map New forecast layout! Learn more

10-Day Weather Forecast

Advertisements
Track Severe Weather on mobile